Airfield :
LOGIN :

Register | Disclaimer

   EN    FR    IT 

 










Legend :    VFR   Marginal VFR   IFR   Intensive IFR   Very Intensive IFR
Visi :
Ceiling :
>= 8 km
>= 3000ft
5 to 8 km
1000 to 3000 ft
1500m to 5 km
500 to 1000 ft
800 to 1500m
200 to 500 ft
< 800m
< 200 ft
Symbols :   Thunderstorms  Fog  Heavy snow  Heavy precipitations  Wind > 20 kt
SIGMETs :     Misc.  Thunderstorms  Icing  Turbulence  Mountain Waves  Volcanic Ashes






- Airport Elevation : 375 ft
- IATA code : MST


EHBK - Maastricht Aachen

CURRENT METAR :
  • 140655Z AUTO 22005KT 9999 NSC 17/12 Q1016 NOSIG

EXPIRED METARs :
  • 140625Z AUTO 20005KT 9999 NSC 15/11 Q1016 NOSIG
  • 140555Z AUTO 21005KT 9999 NSC 15/11 Q1016 NOSIG
  • 140525Z AUTO 20005KT 170V240 9999 NSC 14/11 Q1016 NOSIG
  • 140455Z AUTO 21005KT 9999 NSC 13/11 Q1017 NOSIG
  • 140425Z AUTO 22006KT 9999 NSC 12/10 Q1017 NOSIG

TAF TAF EHBK
Valid from the 14 at 06:00 until the 15 at 12:00 UTC


140501Z 1406/1512 22005KT CAVOK
PROB30
TEMPO 1413/1417 7000 RA
PROB40
TEMPO 1417/1424 6000 -DZRA SCT008 BKN012
PROB30
TEMPO 1420/1424 4000 DZRA BKN008



MET'MAP, your aeronautical weather chart ! - Copyright ORBIFLY December 2007 - Disclaimer

ORBIFLY MET'MAP TEAM :

Programming & Development : Alexandra Zaïnal
Concept & original design : Baudouin d'Aumeries
Assistance for programming : Marc-Olivier Méhu
Technical & hardware support : Manuel Goepfert

Contact : metmap@orbifly.com




SOURCES & CREDITS :

   NOAA